createdAt,value
2019-03-18T15:57:13.879Z,75313.46
2019-03-18T15:59:58.851Z,75317.44
2019-03-18T16:05:32.869Z,75328.36
2019-03-18T16:08:14.217Z,75319.42
2019-03-18T16:13:50.658Z,75340.28
2019-03-18T16:19:20.021Z,75352.20
2019-03-18T16:24:52.140Z,75364.13
2019-03-18T16:30:22.535Z,75372.08
2019-03-18T16:33:06.131Z,75384.00
2019-03-18T16:35:52.597Z,75394.92
2019-03-18T16:38:34.213Z,75395.92
2019-03-18T16:44:02.603Z,75392.94
2019-03-18T16:46:43.499Z,75398.90
2019-03-18T16:49:25.143Z,75400.89
2019-03-18T16:52:06.383Z,75398.90
2019-03-18T16:54:47.560Z,75399.89
2019-03-18T16:57:28.293Z,75397.91
2019-03-18T17:00:09.652Z,75395.92
2019-03-18T17:02:50.861Z,75396.91
2019-03-18T17:05:31.901Z,75396.91
2019-03-18T17:08:12.362Z,75394.92
2019-03-18T17:10:53.562Z,75393.94
2019-03-18T17:13:34.281Z,75397.91
2019-03-18T17:16:15.609Z,75392.94
2019-03-18T17:19:08.024Z,75397.91
2019-03-18T17:33:14.687Z,75390.95
2019-03-18T17:35:55.536Z,75392.94
2019-03-18T17:38:36.210Z,75390.95
2019-03-18T17:41:16.553Z,75388.97
2019-03-18T17:43:57.346Z,75390.95
2019-03-18T17:46:46.085Z,75389.96
2019-03-18T17:49:28.863Z,75390.95
2019-03-18T17:52:10.737Z,75383.00
2019-03-18T17:54:52.085Z,75389.96
2019-03-18T17:57:34.036Z,75399.89
2019-03-18T18:00:15.609Z,75396.91
2019-03-18T18:02:56.258Z,75398.90
2019-03-18T18:05:37.294Z,75400.89
2019-03-18T18:08:18.488Z,75395.92
2019-03-18T18:10:59.933Z,75398.90
2019-03-18T18:13:41.432Z,75398.90
2019-03-18T18:16:26.605Z,75399.89
2019-03-18T18:19:10.251Z,75394.92
2019-03-18T18:21:51.074Z,75391.95
2019-03-18T18:24:32.802Z,75387.97
2019-03-18T18:27:14.742Z,75393.94
2019-03-18T18:29:55.734Z,75387.97
2019-03-18T18:32:36.463Z,75385.98
2019-03-18T18:35:16.968Z,75392.94
2019-03-18T18:37:58.298Z,75384.00
2019-03-18T18:40:40.011Z,75382.02
2019-03-18T18:43:20.948Z,75379.03
2019-03-18T18:46:01.299Z,75381.02
2019-03-18T18:48:42.388Z,75379.03
2019-03-18T18:51:22.922Z,75373.07
2019-03-18T18:54:04.137Z,75382.02
2019-03-18T18:56:44.973Z,75382.02
2019-03-18T18:59:25.747Z,75379.03
2019-03-18T19:02:07.268Z,75365.13
2019-03-18T19:04:48.303Z,75361.15
2019-03-18T19:07:29.461Z,75361.15
2019-03-18T19:10:10.528Z,75360.16
2019-03-18T19:12:51.495Z,75367.11
2019-03-18T19:15:32.787Z,75365.13
2019-03-18T19:18:13.176Z,75363.14
2019-03-18T19:20:54.047Z,75358.17
2019-03-18T19:23:38.044Z,75355.19
2019-03-18T19:26:17.263Z,75356.18
2019-03-18T19:28:57.987Z,75355.19
2019-03-18T19:31:38.522Z,75359.16
2019-03-18T19:34:19.490Z,75359.16
2019-03-18T19:37:00.450Z,75349.23
2019-03-18T19:39:41.748Z,75346.25
2019-03-18T19:42:23.055Z,75339.30
2019-03-18T19:45:04.300Z,75336.31
2019-03-18T19:47:45.566Z,75335.31
2019-03-18T19:50:26.629Z,75342.27
2019-03-18T19:53:07.581Z,75337.30
2019-03-18T19:55:48.830Z,75329.36
2019-03-18T19:58:29.449Z,75324.39
2019-03-18T20:01:09.901Z,75321.41
2019-03-18T20:03:50.785Z,75316.44
2019-03-18T20:06:31.963Z,75323.40
2019-03-18T20:09:13.027Z,75314.45
2019-03-18T20:11:53.305Z,75309.48
2019-03-18T20:14:34.522Z,75313.46
2019-03-18T20:17:15.990Z,75308.50
2019-03-18T20:19:56.442Z,75308.50
2019-03-18T20:22:36.773Z,75306.51
2019-03-18T20:25:17.813Z,75305.52
2019-03-18T20:27:58.182Z,75306.51
2019-03-18T20:30:39.323Z,75300.55
2019-03-18T20:33:20.615Z,75303.53
2019-03-18T20:36:01.403Z,75304.52
2019-03-18T20:38:42.856Z,75297.56
2019-03-18T20:41:23.689Z,75298.56
2019-03-18T20:44:04.761Z,75293.59
2019-03-18T20:46:45.273Z,75292.59
2019-03-18T20:49:26.186Z,75301.55
2019-03-18T20:52:16.404Z,75305.52
2019-03-18T20:54:48.945Z,75298.56
2019-03-18T20:57:29.882Z,75291.61
2019-03-18T21:00:10.536Z,75286.64
2019-03-18T21:02:51.387Z,75289.62
2019-03-18T21:05:33.095Z,75292.59
2019-03-18T21:08:13.935Z,75285.64
2019-03-18T21:10:55.065Z,75282.66
2019-03-18T21:13:35.968Z,75278.69
2019-03-18T21:16:16.884Z,75278.69
2019-03-18T21:18:57.244Z,75280.68
2019-03-18T21:21:38.285Z,75286.64
2019-03-18T21:24:22.993Z,75292.59
2019-03-18T21:27:00.455Z,75286.64
2019-03-18T21:29:41.403Z,75279.69
2019-03-18T21:32:22.553Z,75284.66
2019-03-18T21:35:03.103Z,75278.69
2019-03-18T21:37:44.283Z,75282.66
2019-03-18T21:40:25.535Z,75277.70
2019-03-18T21:43:06.857Z,75272.73
2019-03-18T21:45:47.803Z,75281.67
2019-03-18T21:48:28.356Z,75285.64
2019-03-18T21:51:09.403Z,75283.66
2019-03-18T21:53:50.363Z,75272.73
2019-03-18T21:56:31.657Z,75271.73
2019-03-18T21:59:12.921Z,75266.77
2019-03-18T22:01:53.886Z,75268.76
2019-03-18T22:04:35.255Z,75274.72
2019-03-18T22:07:15.872Z,75276.70
2019-03-18T22:09:56.776Z,75293.59
2019-03-18T22:12:37.533Z,75291.61
2019-03-18T22:15:18.681Z,75292.59
2019-03-18T22:17:59.896Z,75291.61
2019-03-18T22:20:40.583Z,75285.64
2019-03-18T22:23:21.007Z,75290.61
2019-03-18T22:26:01.895Z,75294.59
2019-03-18T22:28:43.166Z,75288.63
2019-03-18T22:31:24.127Z,75293.59
2019-03-18T22:34:05.095Z,75293.59
2019-03-18T22:36:45.865Z,75286.64
2019-03-18T22:39:26.703Z,75292.59
2019-03-18T22:42:07.238Z,75291.61
2019-03-18T22:44:47.972Z,75291.61
2019-03-18T22:47:28.615Z,75288.63
2019-03-18T22:50:09.251Z,75279.69
2019-03-18T22:52:49.654Z,75283.66
2019-03-18T22:55:30.240Z,75287.63
2019-03-18T22:58:10.563Z,75288.63
2019-03-18T23:00:51.226Z,75290.61
2019-03-18T23:03:32.151Z,75288.63
2019-03-18T23:06:12.510Z,75293.59
2019-03-18T23:08:52.833Z,75296.58
2019-03-18T23:11:33.723Z,75305.52
2019-03-18T23:14:15.347Z,75310.48
2019-03-18T23:16:56.943Z,75311.47
2019-03-18T23:19:37.896Z,75310.48
2019-03-18T23:22:18.535Z,75310.48
2019-03-18T23:25:07.002Z,75315.45
2019-03-18T23:27:40.131Z,75320.42
2019-03-18T23:30:20.408Z,75331.34
2019-03-18T23:33:01.706Z,75321.41
2019-03-18T23:35:43.344Z,75329.36
2019-03-18T23:38:24.923Z,75335.31
2019-03-18T23:41:05.883Z,75339.30
2019-03-18T23:43:46.864Z,75351.22
2019-03-18T23:46:27.576Z,75360.16
2019-03-18T23:49:08.287Z,75353.20
2019-03-18T23:51:48.633Z,75355.19
2019-03-18T23:54:29.333Z,75364.13
2019-03-18T23:57:09.627Z,75367.11
2019-03-18T23:59:49.959Z,75361.15
